createdAt,value
2023-03-02T00:02:50.821Z,24.23
2023-03-02T00:07:43.084Z,29.57
2023-03-02T00:12:35.455Z,27.70
2023-03-02T00:17:30.234Z,28.67
2023-03-02T00:22:22.200Z,30.77
2023-03-02T00:27:14.215Z,31.17
2023-03-02T00:32:06.941Z,34.13
2023-03-02T00:36:59.391Z,31.20
2023-03-02T00:41:51.506Z,30.37
2023-03-02T00:46:45.806Z,29.13
2023-03-02T00:51:37.864Z,28.07
2023-03-02T00:56:30.758Z,31.13
2023-03-02T01:01:22.902Z,32.60
2023-03-02T01:06:20.193Z,26.03
2023-03-02T01:11:20.523Z,26.57
2023-03-02T01:16:13.319Z,26.57
2023-03-02T01:21:08.529Z,27.10
2023-03-02T01:26:00.642Z,31.17
2023-03-02T01:30:52.692Z,28.37
2023-03-02T01:35:46.469Z,29.50
2023-03-02T01:40:38.605Z,29.20
2023-03-02T01:45:53.759Z,29.47
2023-03-02T01:50:59.057Z,25.10
2023-03-02T01:55:52.616Z,30.67
2023-03-02T02:00:45.690Z,27.20
2023-03-02T02:12:18.223Z,29.03
2023-03-02T02:17:11.215Z,26.53
2023-03-02T02:22:03.574Z,33.10
2023-03-02T02:26:58.656Z,29.40
2023-03-02T02:32:02.235Z,26.57
2023-03-02T02:36:58.589Z,32.73
2023-03-02T02:41:55.465Z,32.67
2023-03-02T02:46:48.407Z,28.77
2023-03-02T02:51:40.438Z,33.27
2023-03-02T02:56:36.128Z,32.03
2023-03-02T03:01:29.374Z,28.80
2023-03-02T03:06:38.198Z,27.73
2023-03-02T03:11:41.539Z,29.90
2023-03-02T03:16:35.302Z,31.63
2023-03-02T03:21:27.663Z,30.57
2023-03-02T03:26:20.613Z,29.70
2023-03-02T03:31:13.348Z,35.63
2023-03-02T03:36:05.951Z,30.03
2023-03-02T03:40:58.123Z,30.33
2023-03-02T03:45:52.039Z,28.13
2023-03-02T03:50:45.216Z,30.30
2023-03-02T03:55:37.321Z,29.63
2023-03-02T04:00:29.491Z,32.47
2023-03-02T04:05:29.650Z,33.67
2023-03-02T04:10:22.755Z,42.20
2023-03-02T04:15:17.598Z,32.33
2023-03-02T04:20:16.952Z,29.07
2023-03-02T04:25:13.710Z,32.10
2023-03-02T04:30:07.496Z,30.37
2023-03-02T04:35:00.768Z,32.77
2023-03-02T04:39:54.074Z,29.67
2023-03-02T04:44:46.305Z,35.07
2023-03-02T04:49:38.609Z,38.87
2023-03-02T04:54:30.746Z,42.43
2023-03-02T04:59:26.174Z,43.77
2023-03-02T05:04:18.750Z,36.17
2023-03-02T05:09:11.439Z,33.40
2023-03-02T05:14:06.460Z,34.90
2023-03-02T05:18:59.179Z,37.27
2023-03-02T05:23:51.588Z,36.27
2023-03-02T05:28:44.120Z,36.03
2023-03-02T05:33:36.269Z,36.30
2023-03-02T05:38:30.267Z,35.63
2023-03-02T05:43:23.844Z,33.90
2023-03-02T05:48:16.241Z,39.83
2023-03-02T05:53:08.521Z,38.97
2023-03-02T05:58:00.551Z,40.60
2023-03-02T06:02:52.626Z,35.10
2023-03-02T06:07:45.519Z,43.97
2023-03-02T06:12:37.974Z,38.03
2023-03-02T06:17:30.000Z,38.77
2023-03-02T06:22:22.013Z,34.07
2023-03-02T06:27:14.835Z,41.90
2023-03-02T06:32:07.434Z,47.77
2023-03-02T06:36:59.823Z,32.87
2023-03-02T06:41:51.996Z,40.43
2023-03-02T06:46:44.593Z,32.40
2023-03-02T06:51:37.367Z,39.60
2023-03-02T06:56:29.404Z,32.37
2023-03-02T07:01:21.562Z,44.10
2023-03-02T07:06:14.004Z,32.03
2023-03-02T07:11:10.979Z,35.83
2023-03-02T07:16:13.178Z,30.93
2023-03-02T07:21:05.862Z,32.07
2023-03-02T07:25:57.999Z,29.30
2023-03-02T07:30:53.648Z,29.53
2023-03-02T07:35:45.707Z,35.57
2023-03-02T07:40:44.133Z,29.17
2023-03-02T07:45:36.910Z,30.47
2023-03-02T07:50:28.934Z,28.33
2023-03-02T07:55:20.927Z,28.30
2023-03-02T08:00:13.517Z,29.50
2023-03-02T08:05:06.063Z,27.33
2023-03-02T08:09:58.922Z,23.23
2023-03-02T08:14:50.925Z,25.60
2023-03-02T08:19:43.059Z,25.50
2023-03-02T08:24:35.050Z,23.93
2023-03-02T08:29:27.318Z,29.03
2023-03-02T08:34:19.474Z,26.83
2023-03-02T08:39:12.052Z,30.33
2023-03-02T08:44:04.115Z,35.83
2023-03-02T08:48:56.387Z,34.83
2023-03-02T08:53:55.162Z,33.30
2023-03-02T08:58:48.760Z,30.47
2023-03-02T09:03:40.820Z,32.93
2023-03-02T09:08:32.854Z,33.60
2023-03-02T09:13:24.811Z,34.93
2023-03-02T09:18:16.831Z,32.73
2023-03-02T09:23:11.179Z,31.27
2023-03-02T09:28:03.225Z,26.60
2023-03-02T09:32:55.390Z,33.20
2023-03-02T09:37:47.549Z,30.73
2023-03-02T09:43:00.529Z,34.47
2023-03-02T09:48:01.849Z,35.53
2023-03-02T09:53:22.602Z,27.07
2023-03-02T09:58:19.480Z,35.30
2023-03-02T10:03:32.492Z,28.60
2023-03-02T10:08:31.324Z,26.70
2023-03-02T10:13:26.503Z,26.53
2023-03-02T10:18:29.068Z,27.43
2023-03-02T10:23:40.602Z,27.03
2023-03-02T10:28:53.946Z,27.03
2023-03-02T10:33:46.062Z,27.80
2023-03-02T10:38:38.190Z,26.37
2023-03-02T10:43:59.896Z,27.50
2023-03-02T10:48:59.676Z,23.90
2023-03-02T10:54:13.080Z,22.83
2023-03-02T10:59:30.003Z,20.30
2023-03-02T11:04:22.215Z,18.17
2023-03-02T11:09:15.064Z,17.77
2023-03-02T11:14:25.548Z,17.80
2023-03-02T11:19:40.164Z,14.90
2023-03-02T11:24:39.143Z,24.03
2023-03-02T11:29:59.644Z,18.20
2023-03-02T11:35:00.612Z,7.23
2023-03-02T11:40:05.415Z,8.87
2023-03-02T11:45:01.992Z,7.63
2023-03-02T11:49:56.583Z,8.40
2023-03-02T11:54:57.873Z,8.90
2023-03-02T11:59:52.525Z,10.67
2023-03-02T12:04:44.638Z,13.30
2023-03-02T12:09:38.123Z,12.13
2023-03-02T12:14:40.553Z,13.20
2023-03-02T12:19:45.161Z,16.03
2023-03-02T12:24:39.876Z,16.70
2023-03-02T12:29:52.192Z,13.77
2023-03-02T12:34:52.623Z,20.33
2023-03-02T12:40:10.400Z,16.93
2023-03-02T12:45:27.903Z,17.57
2023-03-02T12:50:27.397Z,21.47
2023-03-02T12:55:20.549Z,19.87
2023-03-02T13:00:17.831Z,18.40
2023-03-02T13:05:17.006Z,16.47
2023-03-02T13:10:38.257Z,18.37
2023-03-02T13:15:30.493Z,18.83
2023-03-02T13:20:26.402Z,19.60
2023-03-02T13:25:33.135Z,25.00
2023-03-02T13:30:29.031Z,18.60
2023-03-02T13:35:28.137Z,20.60
2023-03-02T13:40:22.988Z,21.50
2023-03-02T13:45:28.971Z,18.90
2023-03-02T13:50:31.964Z,19.97
2023-03-02T13:55:24.978Z,18.87
2023-03-02T14:00:21.373Z,21.53
2023-03-02T14:05:19.196Z,20.47
2023-03-02T14:10:12.276Z,18.80
2023-03-02T14:15:05.075Z,21.27
2023-03-02T14:19:57.200Z,25.03
2023-03-02T14:24:49.338Z,19.43
2023-03-02T14:29:42.274Z,18.87
2023-03-02T14:34:36.994Z,19.13
2023-03-02T14:39:32.231Z,17.77
2023-03-02T14:44:24.263Z,19.00
2023-03-02T14:49:16.534Z,16.63
2023-03-02T14:54:14.429Z,15.93
2023-03-02T14:59:06.699Z,18.03
2023-03-02T15:03:58.892Z,13.33
2023-03-02T15:08:50.908Z,14.67
2023-03-02T15:13:45.621Z,12.47
2023-03-02T15:18:38.020Z,17.90
2023-03-02T15:23:31.419Z,17.03
2023-03-02T15:28:23.452Z,16.80
2023-03-02T15:33:15.418Z,16.60
2023-03-02T15:38:07.974Z,17.30
2023-03-02T15:43:00.132Z,19.37
2023-03-02T15:47:52.149Z,16.40
2023-03-02T15:52:44.063Z,29.67
2023-03-02T15:57:39.600Z,24.93
2023-03-02T16:02:31.652Z,27.87
2023-03-02T16:07:26.612Z,19.70
2023-03-02T16:12:20.985Z,21.60
2023-03-02T16:17:12.938Z,18.47
2023-03-02T16:22:04.994Z,19.43
2023-03-02T16:26:57.040Z,23.77
2023-03-02T16:31:49.180Z,32.83
2023-03-02T16:36:42.233Z,20.27
2023-03-02T16:41:35.202Z,20.07
2023-03-02T16:46:30.980Z,27.53
2023-03-02T16:51:23.151Z,25.20
2023-03-02T16:56:15.589Z,27.97
2023-03-02T17:01:10.804Z,25.97
2023-03-02T17:06:06.100Z,39.00
2023-03-02T17:10:58.083Z,44.20
2023-03-02T17:15:50.205Z,35.40
2023-03-02T17:20:42.253Z,34.30
2023-03-02T17:25:34.284Z,29.50
2023-03-02T17:30:26.735Z,36.03
2023-03-02T17:35:18.857Z,26.13
2023-03-02T17:40:15.786Z,30.43
2023-03-02T17:45:10.004Z,37.90
2023-03-02T17:50:05.278Z,32.43
2023-03-02T17:54:58.533Z,28.73
2023-03-02T17:59:50.877Z,27.17
2023-03-02T18:04:43.220Z,21.73
2023-03-02T18:09:35.351Z,25.07
2023-03-02T18:14:28.548Z,25.97
2023-03-02T18:19:20.531Z,26.97
2023-03-02T18:24:12.599Z,24.60
2023-03-02T18:29:05.318Z,22.70
2023-03-02T18:33:58.931Z,23.50
2023-03-02T18:38:53.103Z,23.40
2023-03-02T18:43:45.722Z,27.27
2023-03-02T18:48:41.831Z,23.33
2023-03-02T18:53:34.052Z,25.83
2023-03-02T18:58:26.274Z,25.13
2023-03-02T19:03:20.814Z,33.73
2023-03-02T19:08:12.869Z,52.00
2023-03-02T19:13:05.754Z,41.17
2023-03-02T19:17:57.795Z,36.50
2023-03-02T19:22:50.064Z,44.50
2023-03-02T19:27:42.080Z,28.63
2023-03-02T19:32:34.351Z,42.67
2023-03-02T19:37:26.434Z,42.43
2023-03-02T19:42:18.514Z,33.20
2023-03-02T19:47:10.566Z,37.37
2023-03-02T19:52:03.046Z,34.60
2023-03-02T19:56:55.544Z,39.43
2023-03-02T20:01:49.309Z,55.40
2023-03-02T20:06:41.577Z,47.17
2023-03-02T20:11:34.781Z,45.87
2023-03-02T20:16:26.935Z,41.57
2023-03-02T20:21:19.707Z,36.60
2023-03-02T20:26:12.064Z,34.57
2023-03-02T20:31:09.375Z,37.27
2023-03-02T20:36:03.118Z,37.23
2023-03-02T20:40:55.380Z,40.40
2023-03-02T20:45:47.645Z,54.03
2023-03-02T20:50:40.004Z,54.87
2023-03-02T20:55:32.470Z,48.80
2023-03-02T21:00:27.691Z,41.30
2023-03-02T21:05:20.606Z,51.70
2023-03-02T21:10:17.202Z,70.90
2023-03-02T21:15:10.519Z,70.97
2023-03-02T21:20:04.752Z,53.60
2023-03-02T21:24:57.089Z,60.40
2023-03-02T21:29:49.772Z,55.90
2023-03-02T21:34:45.025Z,54.40
2023-03-02T21:39:37.492Z,55.93
2023-03-02T21:44:29.623Z,51.47
2023-03-02T21:49:22.921Z,48.13
2023-03-02T21:54:15.384Z,45.53
2023-03-02T21:59:07.388Z,52.50
2023-03-02T22:04:00.729Z,53.27
2023-03-02T22:08:53.466Z,51.77
2023-03-02T22:13:45.462Z,48.33
2023-03-02T22:18:37.506Z,49.73
2023-03-02T22:23:29.573Z,48.10
2023-03-02T22:28:24.229Z,41.33
2023-03-02T22:33:27.856Z,48.77
2023-03-02T22:38:25.085Z,44.83
2023-03-02T22:43:31.724Z,45.90
2023-03-02T22:48:25.707Z,44.43
2023-03-02T22:53:30.412Z,45.03
2023-03-02T22:58:31.465Z,47.40
2023-03-02T23:03:42.430Z,42.57
2023-03-02T23:08:34.548Z,49.50
2023-03-02T23:13:39.940Z,47.27
2023-03-02T23:18:33.066Z,54.33
2023-03-02T23:23:26.764Z,54.33
2023-03-02T23:28:18.774Z,61.90
2023-03-02T23:33:10.838Z,75.97
2023-03-02T23:38:02.931Z,73.10
2023-03-02T23:42:55.481Z,67.30
2023-03-02T23:47:47.956Z,59.97
2023-03-02T23:52:41.161Z,64.37
2023-03-02T23:57:33.207Z,63.23
